sensor_id;sensor_type;location;lat;lon;timestamp;pressure;altitude;pressure_sealevel;temperature;humidity
77227;BME280;66234;47.642;19.144;2024-02-28T00:02:28;100304.09;;;9.25;100.00
77227;BME280;66234;47.642;19.144;2024-02-28T00:05:32;100291.97;;;9.23;100.00
77227;BME280;66234;47.642;19.144;2024-02-28T00:08:35;100296.72;;;9.27;100.00
77227;BME280;66234;47.642;19.144;2024-02-28T00:11:45;100294.28;;;9.32;100.00
77227;BME280;66234;47.642;19.144;2024-02-28T00:14:48;100291.69;;;9.45;100.00
77227;BME280;66234;47.642;19.144;2024-02-28T00:17:52;100291.22;;;9.35;100.00
77227;BME280;66234;47.642;19.144;2024-02-28T00:20:55;100286.50;;;9.31;100.00
77227;BME280;66234;47.642;19.144;2024-02-28T00:23:58;100291.38;;;9.27;100.00
77227;BME280;66234;47.642;19.144;2024-02-28T00:27:01;100292.47;;;9.39;100.00
77227;BME280;66234;47.642;19.144;2024-02-28T00:30:06;100294.75;;;9.42;100.00
77227;BME280;66234;47.642;19.144;2024-02-28T00:33:09;100302.91;;;9.34;100.00
77227;BME280;66234;47.642;19.144;2024-02-28T00:36:12;100300.84;;;9.30;100.00
77227;BME280;66234;47.642;19.144;2024-02-28T00:39:14;100300.47;;;9.39;100.00
77227;BME280;66234;47.642;19.144;2024-02-28T00:42:18;100307.69;;;9.39;100.00
77227;BME280;66234;47.642;19.144;2024-02-28T00:45:21;100305.41;;;9.36;100.00
77227;BME280;66234;47.642;19.144;2024-02-28T00:48:24;100310.75;;;9.36;100.00
77227;BME280;66234;47.642;19.144;2024-02-28T00:51:27;100306.41;;;9.35;100.00
77227;BME280;66234;47.642;19.144;2024-02-28T00:54:29;100306.41;;;9.35;100.00
77227;BME280;66234;47.642;19.144;2024-02-28T00:57:32;100299.88;;;9.37;100.00
77227;BME280;66234;47.642;19.144;2024-02-28T01:00:35;100305.78;;;9.33;100.00
77227;BME280;66234;47.642;19.144;2024-02-28T01:03:38;100313.19;;;9.31;100.00
77227;BME280;66234;47.642;19.144;2024-02-28T01:06:40;100305.38;;;9.29;100.00
77227;BME280;66234;47.642;19.144;2024-02-28T01:09:44;100303.53;;;9.36;100.00
77227;BME280;66234;47.642;19.144;2024-02-28T01:12:46;100311.50;;;9.30;100.00
77227;BME280;66234;47.642;19.144;2024-02-28T01:15:49;100309.44;;;9.25;100.00
77227;BME280;66234;47.642;19.144;2024-02-28T01:18:52;100313.13;;;9.24;100.00
77227;BME280;66234;47.642;19.144;2024-02-28T01:21:54;100304.94;;;9.26;100.00
77227;BME280;66234;47.642;19.144;2024-02-28T01:24:57;100313.13;;;9.24;100.00
77227;BME280;66234;47.642;19.144;2024-02-28T01:28:00;100318.66;;;9.23;100.00
77227;BME280;66234;47.642;19.144;2024-02-28T01:31:03;100317.97;;;9.14;100.00
77227;BME280;66234;47.642;19.144;2024-02-28T01:34:10;100312.25;;;9.11;100.00
77227;BME280;66234;47.642;19.144;2024-02-28T01:37:12;100310.97;;;9.07;100.00
77227;BME280;66234;47.642;19.144;2024-02-28T01:40:15;100312.59;;;9.01;100.00
77227;BME280;66234;47.642;19.144;2024-02-28T01:43:18;100319.16;;;9.05;100.00
77227;BME280;66234;47.642;19.144;2024-02-28T01:46:24;100333.78;;;9.09;100.00
77227;BME280;66234;47.642;19.144;2024-02-28T01:49:27;100323.50;;;9.06;100.00
77227;BME280;66234;47.642;19.144;2024-02-28T01:52:30;100323.88;;;9.03;100.00
77227;BME280;66234;47.642;19.144;2024-02-28T01:55:33;100319.00;;;9.13;100.00
77227;BME280;66234;47.642;19.144;2024-02-28T01:58:36;100325.25;;;9.27;100.00
77227;BME280;66234;47.642;19.144;2024-02-28T02:01:38;100317.84;;;9.22;100.00
77227;BME280;66234;47.642;19.144;2024-02-28T02:04:41;100322.72;;;9.12;100.00
77227;BME280;66234;47.642;19.144;2024-02-28T02:07:43;100324.50;;;9.05;100.00
77227;BME280;66234;47.642;19.144;2024-02-28T02:10:46;100325.31;;;9.06;100.00
77227;BME280;66234;47.642;19.144;2024-02-28T02:13:51;100336.25;;;9.11;100.00
77227;BME280;66234;47.642;19.144;2024-02-28T02:16:54;100337.44;;;9.08;100.00
77227;BME280;66234;47.642;19.144;2024-02-28T02:19:57;100332.41;;;8.92;100.00
77227;BME280;66234;47.642;19.144;2024-02-28T02:23:00;100339.38;;;8.93;100.00
77227;BME280;66234;47.642;19.144;2024-02-28T02:26:02;100339.13;;;8.82;100.00
77227;BME280;66234;47.642;19.144;2024-02-28T02:29:05;100342.34;;;8.77;100.00
77227;BME280;66234;47.642;19.144;2024-02-28T02:32:08;100344.63;;;8.80;100.00
77227;BME280;66234;47.642;19.144;2024-02-28T02:35:12;100355.66;;;8.77;100.00
77227;BME280;66234;47.642;19.144;2024-02-28T02:38:18;100358.19;;;8.85;100.00
77227;BME280;66234;47.642;19.144;2024-02-28T02:41:21;100362.91;;;8.83;100.00
77227;BME280;66234;47.642;19.144;2024-02-28T02:44:24;100355.91;;;8.82;100.00
77227;BME280;66234;47.642;19.144;2024-02-28T02:47:26;100353.16;;;8.97;100.00
77227;BME280;66234;47.642;19.144;2024-02-28T02:50:29;100348.09;;;9.02;100.00
77227;BME280;66234;47.642;19.144;2024-02-28T02:53:31;100355.38;;;8.93;100.00
77227;BME280;66234;47.642;19.144;2024-02-28T02:56:34;100363.66;;;8.98;100.00
77227;BME280;66234;47.642;19.144;2024-02-28T02:59:37;100363.00;;;8.96;100.00
77227;BME280;66234;47.642;19.144;2024-02-28T03:02:41;100368.47;;;8.88;100.00
77227;BME280;66234;47.642;19.144;2024-02-28T03:05:44;100368.06;;;8.85;100.00
77227;BME280;66234;47.642;19.144;2024-02-28T03:08:49;100373.00;;;8.88;100.00
77227;BME280;66234;47.642;19.144;2024-02-28T03:11:52;100374.56;;;9.03;100.00
77227;BME280;66234;47.642;19.144;2024-02-28T03:14:55;100359.75;;;9.01;100.00
77227;BME280;66234;47.642;19.144;2024-02-28T03:17:57;100371.69;;;9.05;100.00
77227;BME280;66234;47.642;19.144;2024-02-28T03:21:00;100375.28;;;9.18;100.00
77227;BME280;66234;47.642;19.144;2024-02-28T03:24:04;100363.56;;;9.19;100.00
77227;BME280;66234;47.642;19.144;2024-02-28T03:27:07;100364.22;;;9.21;100.00
77227;BME280;66234;47.642;19.144;2024-02-28T03:30:10;100368.91;;;9.19;100.00
77227;BME280;66234;47.642;19.144;2024-02-28T03:33:14;100369.09;;;9.18;100.00
77227;BME280;66234;47.642;19.144;2024-02-28T03:36:17;100379.63;;;9.26;100.00
77227;BME280;66234;47.642;19.144;2024-02-28T03:39:20;100385.34;;;9.23;100.00
77227;BME280;66234;47.642;19.144;2024-02-28T03:42:22;100382.38;;;9.11;100.00
77227;BME280;66234;47.642;19.144;2024-02-28T03:45:27;100388.56;;;9.12;100.00
77227;BME280;66234;47.642;19.144;2024-02-28T03:48:31;100401.97;;;8.97;100.00
77227;BME280;66234;47.642;19.144;2024-02-28T03:51:39;100401.38;;;8.95;100.00
77227;BME280;66234;47.642;19.144;2024-02-28T03:54:43;100400.09;;;8.91;100.00
77227;BME280;66234;47.642;19.144;2024-02-28T03:57:47;100398.69;;;8.95;100.00
77227;BME280;66234;47.642;19.144;2024-02-28T04:00:51;100396.41;;;8.92;100.00
77227;BME280;66234;47.642;19.144;2024-02-28T04:03:54;100389.34;;;9.06;100.00
77227;BME280;66234;47.642;19.144;2024-02-28T04:06:57;100392.31;;;9.17;100.00
77227;BME280;66234;47.642;19.144;2024-02-28T04:10:02;100402.81;;;9.25;100.00
77227;BME280;66234;47.642;19.144;2024-02-28T04:13:08;100397.53;;;9.32;100.00
77227;BME280;66234;47.642;19.144;2024-02-28T04:16:14;100398.81;;;9.36;100.00
77227;BME280;66234;47.642;19.144;2024-02-28T04:19:17;100406.81;;;9.36;100.00
77227;BME280;66234;47.642;19.144;2024-02-28T04:22:19;100398.16;;;9.34;100.00
77227;BME280;66234;47.642;19.144;2024-02-28T04:25:22;100403.19;;;9.22;100.00
77227;BME280;66234;47.642;19.144;2024-02-28T04:28:24;100407.72;;;9.22;100.00
77227;BME280;66234;47.642;19.144;2024-02-28T04:31:27;100407.09;;;9.20;100.00
77227;BME280;66234;47.642;19.144;2024-02-28T04:34:29;100410.63;;;9.27;100.00
77227;BME280;66234;47.642;19.144;2024-02-28T04:37:32;100412.81;;;9.17;100.00
77227;BME280;66234;47.642;19.144;2024-02-28T04:40:37;100407.28;;;9.18;100.00
77227;BME280;66234;47.642;19.144;2024-02-28T04:43:39;100411.53;;;9.13;100.00
77227;BME280;66234;47.642;19.144;2024-02-28T04:46:42;100412.75;;;9.10;100.00
77227;BME280;66234;47.642;19.144;2024-02-28T04:49:45;100412.38;;;9.13;100.00
77227;BME280;66234;47.642;19.144;2024-02-28T04:52:47;100412.63;;;9.18;100.00
77227;BME280;66234;47.642;19.144;2024-02-28T04:55:50;100408.94;;;9.19;100.00
77227;BME280;66234;47.642;19.144;2024-02-28T04:58:53;100417.50;;;9.15;100.00
77227;BME280;66234;47.642;19.144;2024-02-28T05:01:56;100420.56;;;9.12;100.00
77227;BME280;66234;47.642;19.144;2024-02-28T05:04:58;100415.69;;;9.15;100.00
77227;BME280;66234;47.642;19.144;2024-02-28T05:08:02;100412.63;;;9.18;100.00
77227;BME280;66234;47.642;19.144;2024-02-28T05:11:12;100416.13;;;9.19;100.00
77227;BME280;66234;47.642;19.144;2024-02-28T05:14:14;100418.69;;;9.06;100.00
77227;BME280;66234;47.642;19.144;2024-02-28T05:17:17;100421.34;;;9.06;100.00
77227;BME280;66234;47.642;19.144;2024-02-28T05:20:20;100441.63;;;9.00;100.00
77227;BME280;66234;47.642;19.144;2024-02-28T05:23:23;100432.34;;;8.96;100.00
77227;BME280;66234;47.642;19.144;2024-02-28T05:26:25;100432.88;;;9.13;100.00
77227;BME280;66234;47.642;19.144;2024-02-28T05:29:28;100431.69;;;9.15;100.00
77227;BME280;66234;47.642;19.144;2024-02-28T05:32:31;100443.06;;;9.03;100.00
77227;BME280;66234;47.642;19.144;2024-02-28T05:35:34;100442.44;;;9.01;100.00
77227;BME280;66234;47.642;19.144;2024-02-28T05:38:36;100451.06;;;9.03;100.00
77227;BME280;66234;47.642;19.144;2024-02-28T05:41:39;100449.34;;;9.16;100.00
77227;BME280;66234;47.642;19.144;2024-02-28T05:44:41;100455.16;;;9.26;100.00
77227;BME280;66234;47.642;19.144;2024-02-28T05:47:44;100469.69;;;9.17;100.00
77227;BME280;66234;47.642;19.144;2024-02-28T05:50:46;100469.09;;;9.01;100.00
77227;BME280;66234;47.642;19.144;2024-02-28T05:53:49;100475.84;;;8.97;100.00
77227;BME280;66234;47.642;19.144;2024-02-28T05:56:52;100472.53;;;8.95;100.00
77227;BME280;66234;47.642;19.144;2024-02-28T05:59:55;100480.22;;;9.04;100.00
77227;BME280;66234;47.642;19.144;2024-02-28T06:02:58;100483.06;;;9.03;100.00
77227;BME280;66234;47.642;19.144;2024-02-28T06:06:01;100486.41;;;9.11;100.00
77227;BME280;66234;47.642;19.144;2024-02-28T06:09:07;100479.69;;;9.15;100.00
77227;BME280;66234;47.642;19.144;2024-02-28T06:12:12;100488.69;;;9.14;100.00
77227;BME280;66234;47.642;19.144;2024-02-28T06:15:15;100500.72;;;9.25;100.00
77227;BME280;66234;47.642;19.144;2024-02-28T06:18:18;100504.56;;;9.22;100.00
77227;BME280;66234;47.642;19.144;2024-02-28T06:21:24;100496.63;;;9.29;100.00
77227;BME280;66234;47.642;19.144;2024-02-28T06:24:30;100488.06;;;9.33;99.53
77227;BME280;66234;47.642;19.144;2024-02-28T06:27:32;100497.47;;;9.29;98.80
77227;BME280;66234;47.642;19.144;2024-02-28T06:30:35;100501.19;;;9.35;99.67
77227;BME280;66234;47.642;19.144;2024-02-28T06:33:38;100513.97;;;9.39;99.15
77227;BME280;66234;47.642;19.144;2024-02-28T06:36:40;100510.44;;;9.32;100.00
77227;BME280;66234;47.642;19.144;2024-02-28T06:39:43;100514.94;;;9.32;100.00
77227;BME280;66234;47.642;19.144;2024-02-28T06:42:46;100515.25;;;9.43;99.10
77227;BME280;66234;47.642;19.144;2024-02-28T06:45:49;100527.81;;;9.49;97.54
77227;BME280;66234;47.642;19.144;2024-02-28T06:48:52;100515.34;;;9.56;97.85
77227;BME280;66234;47.642;19.144;2024-02-28T06:51:55;100520.25;;;9.80;94.91
77227;BME280;66234;47.642;19.144;2024-02-28T06:55:02;100525.38;;;9.82;93.85
77227;BME280;66234;47.642;19.144;2024-02-28T06:58:12;100519.50;;;9.93;94.47
77227;BME280;66234;47.642;19.144;2024-02-28T07:01:17;100522.38;;;9.91;94.87
77227;BME280;66234;47.642;19.144;2024-02-28T07:04:21;100523.38;;;9.90;93.77
77227;BME280;66234;47.642;19.144;2024-02-28T07:07:24;100521.69;;;9.83;94.46
77227;BME280;66234;47.642;19.144;2024-02-28T07:10:31;100522.91;;;9.80;94.82
77227;BME280;66234;47.642;19.144;2024-02-28T07:13:33;100528.47;;;9.85;93.54
77227;BME280;66234;47.642;19.144;2024-02-28T07:16:36;100527.28;;;9.88;93.47
77227;BME280;66234;47.642;19.144;2024-02-28T07:19:38;100525.22;;;9.90;93.20
77227;BME280;66234;47.642;19.144;2024-02-28T07:22:42;100525.00;;;9.85;93.04
77227;BME280;66234;47.642;19.144;2024-02-28T07:25:46;100533.00;;;9.85;92.31
77227;BME280;66234;47.642;19.144;2024-02-28T07:28:49;100536.03;;;9.75;93.05
77227;BME280;66234;47.642;19.144;2024-02-28T07:31:53;100534.38;;;9.74;92.97
77227;BME280;66234;47.642;19.144;2024-02-28T07:34:56;100542.38;;;9.74;93.08
77227;BME280;66234;47.642;19.144;2024-02-28T07:37:59;100541.94;;;9.71;93.12
77227;BME280;66234;47.642;19.144;2024-02-28T07:41:02;100548.28;;;9.70;93.35
77227;BME280;66234;47.642;19.144;2024-02-28T07:44:05;100552.38;;;9.66;93.66
77227;BME280;66234;47.642;19.144;2024-02-28T07:47:09;100559.41;;;9.73;93.82
77227;BME280;66234;47.642;19.144;2024-02-28T07:50:12;100562.28;;;9.72;93.70
77227;BME280;66234;47.642;19.144;2024-02-28T07:53:14;100555.97;;;9.79;92.77
77227;BME280;66234;47.642;19.144;2024-02-28T07:56:18;100557.50;;;9.95;92.64
77227;BME280;66234;47.642;19.144;2024-02-28T07:59:21;100563.00;;;9.87;91.55
77227;BME280;66234;47.642;19.144;2024-02-28T08:02:24;100564.75;;;10.01;90.94
77227;BME280;66234;47.642;19.144;2024-02-28T08:05:28;100565.13;;;9.98;89.99
77227;BME280;66234;47.642;19.144;2024-02-28T08:08:31;100567.00;;;9.97;90.78
77227;BME280;66234;47.642;19.144;2024-02-28T08:11:34;100573.16;;;9.98;90.58
77227;BME280;66234;47.642;19.144;2024-02-28T08:14:37;100569.88;;;9.96;90.36
77227;BME280;66234;47.642;19.144;2024-02-28T08:17:39;100575.22;;;10.02;89.73
77227;BME280;66234;47.642;19.144;2024-02-28T08:20:42;100576.06;;;10.03;90.59
77227;BME280;66234;47.642;19.144;2024-02-28T08:23:45;100562.97;;;10.08;90.46
77227;BME280;66234;47.642;19.144;2024-02-28T08:26:48;100564.66;;;10.16;88.71
77227;BME280;66234;47.642;19.144;2024-02-28T08:29:52;100563.25;;;10.20;88.56
77227;BME280;66234;47.642;19.144;2024-02-28T08:32:55;100568.84;;;10.25;88.25
77227;BME280;66234;47.642;19.144;2024-02-28T08:35:57;100576.09;;;10.37;87.40
77227;BME280;66234;47.642;19.144;2024-02-28T08:39:00;100578.44;;;10.53;86.84
77227;BME280;66234;47.642;19.144;2024-02-28T08:42:03;100582.84;;;10.74;85.45
77227;BME280;66234;47.642;19.144;2024-02-28T08:45:06;100583.94;;;10.92;85.02
77227;BME280;66234;47.642;19.144;2024-02-28T08:48:09;100577.81;;;11.05;83.82
77227;BME280;66234;47.642;19.144;2024-02-28T08:51:12;100582.59;;;11.22;83.19
77227;BME280;66234;47.642;19.144;2024-02-28T08:54:15;100571.28;;;11.40;81.92
77227;BME280;66234;47.642;19.144;2024-02-28T08:57:17;100575.41;;;11.36;82.09
77227;BME280;66234;47.642;19.144;2024-02-28T09:00:20;100571.28;;;11.40;82.85
77227;BME280;66234;47.642;19.144;2024-02-28T09:03:24;100577.06;;;11.50;82.96
77227;BME280;66234;47.642;19.144;2024-02-28T09:06:27;100581.19;;;11.59;82.83
77227;BME280;66234;47.642;19.144;2024-02-28T09:09:30;100577.72;;;11.78;80.46
77227;BME280;66234;47.642;19.144;2024-02-28T09:12:36;100580.38;;;11.98;78.50
77227;BME280;66234;47.642;19.144;2024-02-28T09:15:39;100573.94;;;12.18;78.47
77227;BME280;66234;47.642;19.144;2024-02-28T09:18:42;100574.16;;;12.23;78.75
77227;BME280;66234;47.642;19.144;2024-02-28T09:21:45;100581.91;;;12.51;76.79
77227;BME280;66234;47.642;19.144;2024-02-28T09:24:48;100579.59;;;12.61;77.19
77227;BME280;66234;47.642;19.144;2024-02-28T09:27:52;100581.34;;;12.93;75.23
77227;BME280;66234;47.642;19.144;2024-02-28T09:30:55;100584.56;;;13.14;74.70
77227;BME280;66234;47.642;19.144;2024-02-28T09:34:00;100584.63;;;13.33;72.98
77227;BME280;66234;47.642;19.144;2024-02-28T09:37:06;100582.31;;;13.43;71.77
77227;BME280;66234;47.642;19.144;2024-02-28T09:40:10;100586.28;;;13.34;73.26
77227;BME280;66234;47.642;19.144;2024-02-28T09:43:26;100580.78;;;13.53;72.42
77227;BME280;66234;47.642;19.144;2024-02-28T09:46:31;100590.75;;;13.71;70.72
77227;BME280;66234;47.642;19.144;2024-02-28T09:49:36;100592.16;;;13.80;71.18
77227;BME280;66234;47.642;19.144;2024-02-28T09:52:39;100587.31;;;13.88;72.56
77227;BME280;66234;47.642;19.144;2024-02-28T09:55:44;100590.91;;;14.00;69.68
77227;BME280;66234;47.642;19.144;2024-02-28T09:58:47;100592.06;;;14.11;69.57
77227;BME280;66234;47.642;19.144;2024-02-28T10:01:56;100594.31;;;14.14;69.12
77227;BME280;66234;47.642;19.144;2024-02-28T10:05:00;100586.81;;;13.98;68.69
77227;BME280;66234;47.642;19.144;2024-02-28T10:08:05;100592.34;;;14.03;68.87
77227;BME280;66234;47.642;19.144;2024-02-28T10:11:08;100588.28;;;13.94;70.35
77227;BME280;66234;47.642;19.144;2024-02-28T10:14:11;100582.50;;;14.15;69.76
77227;BME280;66234;47.642;19.144;2024-02-28T10:17:14;100582.63;;;14.26;69.81
77227;BME280;66234;47.642;19.144;2024-02-28T10:20:17;100589.91;;;14.19;68.86
77227;BME280;66234;47.642;19.144;2024-02-28T10:23:19;100581.47;;;14.16;69.39
77227;BME280;66234;47.642;19.144;2024-02-28T10:26:22;100588.06;;;14.20;70.58
77227;BME280;66234;47.642;19.144;2024-02-28T10:29:25;100595.44;;;14.31;69.80
77227;BME280;66234;47.642;19.144;2024-02-28T10:32:31;100588.09;;;14.56;69.17
77227;BME280;66234;47.642;19.144;2024-02-28T10:35:36;100586.91;;;14.52;69.97
77227;BME280;66234;47.642;19.144;2024-02-28T10:38:39;100593.63;;;14.61;68.31
77227;BME280;66234;47.642;19.144;2024-02-28T10:41:43;100592.00;;;14.60;67.69
77227;BME280;66234;47.642;19.144;2024-02-28T10:44:47;100598.19;;;14.42;67.82
77227;BME280;66234;47.642;19.144;2024-02-28T10:48:03;100596.69;;;14.64;67.97
77227;BME280;66234;47.642;19.144;2024-02-28T10:51:08;100593.25;;;14.75;67.74
77227;BME280;66234;47.642;19.144;2024-02-28T10:54:13;100588.09;;;14.74;67.74
77227;BME280;66234;47.642;19.144;2024-02-28T10:57:17;100592.00;;;14.60;68.03
77227;BME280;66234;47.642;19.144;2024-02-28T11:00:21;100590.78;;;14.74;68.58
77227;BME280;66234;47.642;19.144;2024-02-28T11:03:24;100593.91;;;14.89;66.86
77227;BME280;66234;47.642;19.144;2024-02-28T11:06:28;100595.41;;;14.85;67.11
77227;BME280;66234;47.642;19.144;2024-02-28T11:09:34;100598.16;;;14.97;66.82
77227;BME280;66234;47.642;19.144;2024-02-28T11:12:37;100595.94;;;14.75;67.60
77227;BME280;66234;47.642;19.144;2024-02-28T11:15:40;100600.78;;;14.85;67.44
77227;BME280;66234;47.642;19.144;2024-02-28T11:18:50;100595.41;;;14.85;67.27
77227;BME280;66234;47.642;19.144;2024-02-28T11:21:56;100587.84;;;14.94;67.12
77227;BME280;66234;47.642;19.144;2024-02-28T11:25:00;100592.53;;;14.98;67.03
77227;BME280;66234;47.642;19.144;2024-02-28T11:28:05;100588.72;;;15.06;67.13
77227;BME280;66234;47.642;19.144;2024-02-28T11:31:09;100577.00;;;15.00;66.25
77227;BME280;66234;47.642;19.144;2024-02-28T11:34:12;100588.78;;;15.17;66.52
77227;BME280;66234;47.642;19.144;2024-02-28T11:37:15;100582.09;;;15.20;66.69
77227;BME280;66234;47.642;19.144;2024-02-28T11:40:18;100577.53;;;15.20;66.56
77227;BME280;66234;47.642;19.144;2024-02-28T11:43:21;100574.16;;;15.25;66.85
77227;BME280;66234;47.642;19.144;2024-02-28T11:46:25;100570.44;;;15.37;66.68
77227;BME280;66234;47.642;19.144;2024-02-28T11:49:33;100574.34;;;15.41;67.59
77227;BME280;66234;47.642;19.144;2024-02-28T11:52:36;100569.69;;;15.48;66.20
77227;BME280;66234;47.642;19.144;2024-02-28T11:55:39;100563.88;;;15.86;64.33
77227;BME280;66234;47.642;19.144;2024-02-28T11:58:53;100561.16;;;15.86;66.49
77227;BME280;66234;47.642;19.144;2024-02-28T12:01:56;100563.63;;;15.87;64.79
77227;BME280;66234;47.642;19.144;2024-02-28T12:05:03;100554.84;;;16.15;64.21
77227;BME280;66234;47.642;19.144;2024-02-28T12:08:07;100555.44;;;16.17;63.13
77227;BME280;66234;47.642;19.144;2024-02-28T12:11:13;100555.69;;;16.04;63.34
77227;BME280;66234;47.642;19.144;2024-02-28T12:14:22;100549.00;;;16.06;64.93
77227;BME280;66234;47.642;19.144;2024-02-28T12:17:27;100563.28;;;16.18;63.95
77227;BME280;66234;47.642;19.144;2024-02-28T12:20:30;100553.16;;;16.37;63.79
77227;BME280;66234;47.642;19.144;2024-02-28T12:23:32;100554.59;;;16.28;63.47
77227;BME280;66234;47.642;19.144;2024-02-28T12:26:36;100549.19;;;16.51;62.87
77227;BME280;66234;47.642;19.144;2024-02-28T12:29:39;100540.00;;;16.64;61.90
77227;BME280;66234;47.642;19.144;2024-02-28T12:32:42;100553.88;;;16.95;61.66
77227;BME280;66234;47.642;19.144;2024-02-28T12:35:45;100550.63;;;16.82;62.59
77227;BME280;66234;47.642;19.144;2024-02-28T12:38:48;100547.44;;;16.85;60.99
77227;BME280;66234;47.642;19.144;2024-02-28T12:41:51;100539.97;;;16.75;62.69
77227;BME280;66234;47.642;19.144;2024-02-28T12:44:57;100547.50;;;17.01;61.72
77227;BME280;66234;47.642;19.144;2024-02-28T12:48:07;100537.84;;;16.77;62.57
77227;BME280;66234;47.642;19.144;2024-02-28T12:55:20;100530.22;;;17.02;61.19
77227;BME280;66234;47.642;19.144;2024-02-28T12:58:23;100529.13;;;17.15;61.30
77227;BME280;66234;47.642;19.144;2024-02-28T13:01:26;100536.25;;;17.21;61.86
77227;BME280;66234;47.642;19.144;2024-02-28T13:04:29;100532.47;;;17.22;61.21
77227;BME280;66234;47.642;19.144;2024-02-28T13:07:32;100529.47;;;17.35;61.94
77227;BME280;66234;47.642;19.144;2024-02-28T13:10:35;100537.00;;;17.33;60.79
77227;BME280;66234;47.642;19.144;2024-02-28T13:13:41;100526.50;;;17.48;61.30
77227;BME280;66234;47.642;19.144;2024-02-28T13:16:44;100526.56;;;17.53;59.80
77227;BME280;66234;47.642;19.144;2024-02-28T13:19:47;100526.25;;;17.66;60.34
77227;BME280;66234;47.642;19.144;2024-02-28T13:22:50;100523.53;;;17.66;60.60
77227;BME280;66234;47.642;19.144;2024-02-28T13:25:53;100511.31;;;17.47;61.41
77227;BME280;66234;47.642;19.144;2024-02-28T13:28:56;100529.06;;;17.43;62.45
77227;BME280;66234;47.642;19.144;2024-02-28T13:31:59;100522.50;;;17.22;62.52
77227;BME280;66234;47.642;19.144;2024-02-28T13:35:02;100523.78;;;17.48;61.54
77227;BME280;66234;47.642;19.144;2024-02-28T13:38:05;100514.09;;;17.52;61.40
77227;BME280;66234;47.642;19.144;2024-02-28T13:41:21;100513.72;;;17.60;61.09
77227;BME280;66234;47.642;19.144;2024-02-28T13:44:27;100518.13;;;17.49;61.81
77227;BME280;66234;47.642;19.144;2024-02-28T13:47:31;100517.63;;;17.69;60.88
77227;BME280;66234;47.642;19.144;2024-02-28T13:50:34;100512.00;;;18.08;60.00
77227;BME280;66234;47.642;19.144;2024-02-28T13:53:37;100515.09;;;18.17;59.78
77227;BME280;66234;47.642;19.144;2024-02-28T13:56:43;100519.75;;;18.22;59.35
77227;BME280;66234;47.642;19.144;2024-02-28T13:59:45;100516.38;;;18.31;59.37
77227;BME280;66234;47.642;19.144;2024-02-28T14:02:51;100519.72;;;18.00;59.46
77227;BME280;66234;47.642;19.144;2024-02-28T14:05:54;100516.34;;;18.10;59.13
77227;BME280;66234;47.642;19.144;2024-02-28T14:08:57;100522.28;;;17.90;60.63
77227;BME280;66234;47.642;19.144;2024-02-28T14:11:59;100518.28;;;17.59;60.85
77227;BME280;66234;47.642;19.144;2024-02-28T14:15:04;100517.63;;;17.69;61.25
77227;BME280;66234;47.642;19.144;2024-02-28T14:18:06;100514.59;;;17.82;60.28
77227;BME280;66234;47.642;19.144;2024-02-28T14:21:09;100519.22;;;18.03;60.02
77227;BME280;66234;47.642;19.144;2024-02-28T14:24:12;100515.41;;;17.99;60.81
77227;BME280;66234;47.642;19.144;2024-02-28T14:27:14;100507.50;;;18.14;60.05
77227;BME280;66234;47.642;19.144;2024-02-28T14:30:17;100513.28;;;18.23;59.55
77227;BME280;66234;47.642;19.144;2024-02-28T14:33:20;100511.66;;;18.22;59.76
77227;BME280;66234;47.642;19.144;2024-02-28T14:36:22;100520.59;;;18.22;59.43
77227;BME280;66234;47.642;19.144;2024-02-28T14:39:26;100509.06;;;18.48;58.86
77227;BME280;66234;47.642;19.144;2024-02-28T14:42:29;100521.66;;;18.38;58.56
77227;BME280;66234;47.642;19.144;2024-02-28T14:45:32;100518.44;;;18.24;58.92
77227;BME280;66234;47.642;19.144;2024-02-28T14:48:35;100518.56;;;18.13;59.95
77227;BME280;66234;47.642;19.144;2024-02-28T14:51:40;100517.91;;;18.05;60.38
77227;BME280;66234;47.642;19.144;2024-02-28T14:54:45;100519.63;;;18.33;59.32
77227;BME280;66234;47.642;19.144;2024-02-28T14:57:48;100525.22;;;18.43;58.92
77227;BME280;66234;47.642;19.144;2024-02-28T15:00:51;100524.47;;;18.10;60.55
77227;BME280;66234;47.642;19.144;2024-02-28T15:03:54;100524.34;;;17.83;61.23
77227;BME280;66234;47.642;19.144;2024-02-28T15:06:57;100536.72;;;17.62;61.92
77227;BME280;66234;47.642;19.144;2024-02-28T15:09:59;100533.63;;;17.26;62.79
77227;BME280;66234;47.642;19.144;2024-02-28T15:13:03;100533.16;;;17.01;64.41
77227;BME280;66234;47.642;19.144;2024-02-28T15:16:06;100537.53;;;16.74;65.38
77227;BME280;66234;47.642;19.144;2024-02-28T15:19:09;100539.69;;;16.49;66.41
77227;BME280;66234;47.642;19.144;2024-02-28T15:22:12;100541.81;;;16.23;67.50
77227;BME280;66234;47.642;19.144;2024-02-28T15:25:14;100537.03;;;15.91;68.77
77227;BME280;66234;47.642;19.144;2024-02-28T15:28:17;100539.94;;;15.66;70.53
77227;BME280;66234;47.642;19.144;2024-02-28T15:31:20;100539.09;;;15.43;71.63
77227;BME280;66234;47.642;19.144;2024-02-28T15:34:23;100542.06;;;15.23;72.49
77227;BME280;66234;47.642;19.144;2024-02-28T15:37:26;100549.84;;;15.13;73.56
77227;BME280;66234;47.642;19.144;2024-02-28T15:40:32;100550.59;;;14.91;74.38
77227;BME280;66234;47.642;19.144;2024-02-28T15:43:35;100553.25;;;14.61;75.95
77227;BME280;66234;47.642;19.144;2024-02-28T15:46:38;100559.78;;;14.53;75.94
77227;BME280;66234;47.642;19.144;2024-02-28T15:49:40;100557.78;;;14.31;76.82
77227;BME280;66234;47.642;19.144;2024-02-28T15:52:44;100557.97;;;14.05;78.18